createdAt,value
2023-03-11T06:04:16.183Z,94.00
2023-03-11T06:09:19.701Z,93.80
2023-03-11T06:14:23.485Z,93.60
2023-03-11T06:19:28.439Z,93.50
2023-03-11T06:24:31.976Z,93.80
2023-03-11T06:29:36.122Z,93.90
2023-03-11T06:34:41.203Z,93.90
2023-03-11T06:39:44.881Z,93.70
2023-03-11T06:44:49.385Z,94.20
2023-03-11T06:49:54.297Z,94.30
2023-03-11T06:54:57.683Z,94.40
2023-03-11T07:00:06.670Z,94.30
2023-03-11T07:05:13.374Z,94.10
2023-03-11T07:10:17.093Z,94.40
2023-03-11T07:15:20.534Z,94.70
2023-03-11T07:20:25.337Z,94.20
2023-03-11T07:25:28.667Z,94.00
2023-03-11T07:30:31.977Z,94.20
2023-03-11T07:35:37.756Z,94.30
2023-03-11T07:46:57.457Z,94.30
2023-03-11T07:52:02.461Z,94.20
2023-03-11T07:57:07.347Z,94.10
2023-03-11T08:02:11.010Z,94.10
2023-03-11T08:07:15.729Z,94.20
2023-03-11T08:12:19.124Z,94.30
2023-03-11T08:17:22.418Z,94.30
2023-03-11T08:22:27.241Z,93.90
2023-03-11T08:27:30.600Z,93.80
2023-03-11T08:32:34.118Z,94.00
2023-03-11T08:37:38.796Z,93.70
2023-03-11T08:42:42.130Z,93.60
2023-03-11T08:47:45.763Z,93.30
2023-03-11T08:52:50.721Z,93.20
2023-03-11T08:57:54.110Z,93.20
2023-03-11T09:02:57.496Z,93.20
2023-03-11T09:08:05.206Z,93.20
2023-03-11T09:13:08.844Z,93.30
2023-03-11T09:18:13.211Z,93.40
2023-03-11T09:23:18.651Z,93.10
2023-03-11T09:28:21.952Z,93.00
2023-03-11T09:33:25.633Z,93.10
2023-03-11T09:38:30.335Z,93.10
2023-03-11T09:43:45.544Z,92.90
2023-03-11T09:48:50.951Z,93.30
2023-03-11T09:53:58.698Z,93.00
2023-03-11T09:59:03.670Z,93.00
2023-03-11T10:04:09.958Z,92.80
2023-03-11T10:09:27.538Z,92.60
2023-03-11T10:14:36.239Z,92.70
2023-03-11T10:19:45.393Z,93.00
2023-03-11T10:24:57.410Z,93.30
2023-03-11T10:30:04.112Z,92.70
2023-03-11T10:35:12.753Z,93.40
2023-03-11T10:40:30.466Z,93.50
2023-03-11T10:45:37.941Z,93.90
2023-03-11T10:50:46.337Z,93.10
2023-03-11T10:55:51.972Z,93.30
2023-03-11T11:01:02.742Z,92.90
2023-03-11T11:06:07.418Z,92.20
2023-03-11T11:11:21.389Z,92.40
2023-03-11T11:16:25.338Z,92.50
2023-03-11T11:21:30.226Z,92.90
2023-03-11T11:26:34.917Z,93.10
2023-03-11T11:31:38.905Z,92.50
2023-03-11T11:36:42.618Z,92.80
2023-03-11T11:41:49.412Z,93.00
2023-03-11T11:46:56.592Z,92.60
2023-03-11T11:52:01.786Z,92.70
2023-03-11T11:57:12.153Z,92.50
2023-03-11T12:02:26.113Z,92.40
2023-03-11T12:07:34.569Z,92.50
2023-03-11T12:12:43.198Z,92.20
2023-03-11T12:17:47.810Z,92.20
2023-03-11T12:23:04.690Z,92.60
2023-03-11T12:28:18.838Z,92.70
2023-03-11T12:33:27.191Z,92.90
2023-03-11T12:38:33.794Z,93.10
2023-03-11T12:44:11.222Z,92.90
2023-03-11T12:49:15.971Z,92.60
2023-03-11T12:54:23.450Z,92.30
2023-03-11T12:59:51.880Z,92.70
2023-03-11T13:05:00.290Z,93.00
2023-03-11T13:10:06.933Z,92.20
2023-03-11T13:15:23.121Z,91.80
2023-03-11T13:20:49.185Z,91.40
2023-03-11T13:26:13.942Z,91.50
2023-03-11T13:31:35.621Z,90.90
2023-03-11T13:36:48.812Z,90.10
2023-03-11T13:41:52.204Z,90.20
2023-03-11T13:46:58.066Z,90.30
2023-03-11T13:52:03.355Z,90.50
2023-03-11T13:57:07.005Z,91.10
2023-03-11T14:02:17.269Z,91.50
2023-03-11T14:07:24.928Z,92.00
2023-03-11T14:12:32.046Z,92.80
2023-03-11T14:17:35.584Z,93.30
2023-03-11T14:22:40.358Z,93.50
2023-03-11T14:27:52.752Z,93.30
2023-03-11T14:33:00.680Z,93.30
2023-03-11T14:38:07.001Z,93.50
2023-03-11T14:43:12.654Z,92.70
2023-03-11T14:48:19.839Z,90.50
2023-03-11T14:53:25.800Z,89.40
2023-03-11T14:58:31.495Z,88.70
2023-03-11T15:03:35.942Z,88.10
2023-03-11T15:08:45.209Z,86.10
2023-03-11T15:13:51.172Z,87.20
2023-03-11T15:18:55.508Z,89.80
2023-03-11T15:24:05.058Z,90.70
2023-03-11T15:29:14.683Z,91.10
2023-03-11T15:34:26.284Z,91.60
2023-03-11T15:39:43.863Z,92.30
2023-03-11T15:44:55.069Z,92.70
2023-03-11T15:49:58.478Z,93.00
2023-03-11T15:55:03.275Z,93.20
2023-03-11T16:00:08.429Z,93.10
2023-03-11T16:05:16.357Z,93.10
2023-03-11T16:10:21.939Z,93.80
2023-03-11T16:15:28.465Z,93.90
2023-03-11T16:20:34.189Z,93.80
2023-03-11T16:25:40.074Z,93.60
2023-03-11T16:30:43.812Z,93.40
2023-03-11T16:35:47.424Z,93.80
2023-03-11T16:40:56.440Z,93.80
2023-03-11T16:45:59.865Z,94.00
2023-03-11T16:51:03.216Z,94.40
2023-03-11T16:56:08.514Z,94.60
2023-03-11T17:01:12.744Z,94.90
2023-03-11T17:06:16.269Z,95.00
2023-03-11T17:11:21.675Z,95.30
2023-03-11T17:16:25.153Z,95.40
2023-03-11T17:21:28.536Z,95.70
2023-03-11T17:26:33.332Z,95.90
2023-03-11T17:31:36.820Z,96.00
2023-03-11T17:36:40.234Z,96.10
2023-03-11T17:41:44.931Z,96.20
2023-03-11T17:46:48.324Z,96.10
2023-03-11T17:51:51.666Z,96.30
2023-03-11T17:56:56.674Z,96.40
2023-03-11T18:02:00.200Z,96.50
2023-03-11T18:07:03.678Z,96.60
2023-03-11T18:12:08.533Z,96.70
2023-03-11T18:17:11.933Z,97.00
2023-03-11T18:22:15.548Z,97.10
2023-03-11T18:27:20.457Z,97.30
2023-03-11T18:32:24.783Z,97.40
2023-03-11T18:37:28.168Z,97.30
2023-03-11T18:42:33.107Z,97.20
2023-03-11T18:47:36.529Z,97.20
2023-03-11T18:52:39.846Z,97.20
2023-03-11T18:57:44.528Z,97.30
2023-03-11T19:02:50.906Z,97.20
2023-03-11T19:07:54.469Z,97.00
2023-03-11T19:12:59.139Z,97.00
2023-03-11T19:18:06.895Z,97.20
2023-03-11T19:23:11.430Z,97.30
2023-03-11T19:28:16.147Z,97.20
2023-03-11T19:33:19.745Z,97.40
2023-03-11T19:38:23.449Z,97.70
2023-03-11T19:43:28.510Z,98.00
2023-03-11T19:48:31.968Z,98.20
2023-03-11T19:53:35.972Z,98.20
2023-03-11T19:58:41.998Z,98.40
2023-03-11T20:03:45.497Z,98.50
2023-03-11T20:08:48.842Z,98.70
2023-03-11T20:13:53.701Z,98.60
2023-03-11T20:18:57.066Z,98.70
2023-03-11T20:24:01.258Z,98.90
2023-03-11T20:29:06.522Z,99.10
2023-03-11T20:34:10.611Z,99.00
2023-03-11T20:39:14.010Z,99.40
2023-03-11T20:44:18.880Z,99.70
2023-03-11T20:49:22.346Z,99.70
2023-03-11T20:54:25.726Z,99.70
2023-03-11T20:59:30.706Z,99.50
2023-03-11T21:04:35.539Z,99.70
2023-03-11T21:09:39.030Z,99.90
2023-03-11T21:14:43.766Z,99.90
2023-03-11T21:19:47.347Z,99.90
2023-03-11T21:24:52.150Z,99.90
2023-03-11T21:29:57.261Z,99.90
2023-03-11T21:35:01.510Z,99.90
2023-03-11T21:40:06.072Z,99.90
2023-03-11T21:45:11.643Z,99.90
2023-03-11T21:50:15.184Z,99.90
2023-03-11T21:55:18.828Z,99.90
2023-03-11T22:00:23.725Z,99.90
2023-03-11T22:05:27.367Z,99.90
2023-03-11T22:10:32.092Z,99.90
2023-03-11T22:15:36.984Z,99.90
2023-03-11T22:20:41.091Z,99.90
2023-03-11T22:25:44.436Z,99.90
2023-03-11T22:30:49.115Z,99.90
2023-03-11T22:35:53.754Z,99.90
2023-03-11T22:40:57.244Z,99.90
2023-03-11T22:46:02.506Z,99.90
2023-03-11T22:51:07.331Z,99.90
2023-03-11T22:56:12.314Z,99.90
2023-03-11T23:01:17.445Z,99.90
2023-03-11T23:06:21.031Z,99.90
2023-03-11T23:11:24.455Z,99.90
2023-03-11T23:16:29.137Z,99.90
2023-03-11T23:21:33.326Z,99.90
2023-03-11T23:26:37.136Z,99.90
